createdAt,value
2023-01-13T00:02:03.508Z,98442.16
2023-01-13T00:04:35.454Z,98436.89
2023-01-13T00:07:07.258Z,98431.91
2023-01-13T00:09:39.340Z,98430.29
2023-01-13T00:12:13.257Z,98425.09
2023-01-13T00:14:45.323Z,98420.27
2023-01-13T00:17:17.441Z,98413.70
2023-01-13T00:19:49.353Z,98411.23
2023-01-13T00:22:21.070Z,98412.63
2023-01-13T00:24:52.983Z,98412.86
2023-01-13T00:27:25.489Z,98409.27
2023-01-13T00:29:57.289Z,98412.03
2023-01-13T00:32:29.383Z,98418.31
2023-01-13T00:35:01.214Z,98416.41
2023-01-13T00:37:33.109Z,98422.05
2023-01-13T00:40:05.387Z,98419.86
2023-01-13T00:42:54.965Z,98421.87
2023-01-13T00:45:26.848Z,98422.08
2023-01-13T00:47:58.775Z,98421.77
2023-01-13T00:50:30.751Z,98426.56
2023-01-13T00:53:03.715Z,98419.95
2023-01-13T00:55:35.644Z,98419.29
2023-01-13T00:58:07.487Z,98417.52
2023-01-13T01:00:40.080Z,98416.52
2023-01-13T01:03:14.167Z,98412.69
2023-01-13T01:05:46.081Z,98420.02
2023-01-13T01:08:17.906Z,98420.27
2023-01-13T01:10:49.929Z,98410.74
2023-01-13T01:13:21.674Z,98414.86
2023-01-13T01:15:53.586Z,98409.70
2023-01-13T01:18:25.537Z,98405.80
2023-01-13T01:21:00.257Z,98403.14
2023-01-13T01:23:32.832Z,98397.46
2023-01-13T01:26:06.248Z,98401.05
2023-01-13T01:28:39.942Z,98400.73
2023-01-13T01:31:11.791Z,98398.90
2023-01-13T01:33:44.650Z,98393.61
2023-01-13T01:36:18.383Z,98387.86
2023-01-13T01:38:51.840Z,98385.64
2023-01-13T01:41:26.230Z,98381.20
2023-01-13T01:44:07.030Z,98376.04
2023-01-13T01:46:42.024Z,98371.56
2023-01-13T01:49:19.138Z,98371.13
2023-01-13T01:51:54.803Z,98368.11
2023-01-13T01:54:31.877Z,98366.94
2023-01-13T01:57:04.463Z,98361.61
2023-01-13T01:59:38.489Z,98358.58
2023-01-13T02:02:11.944Z,98353.23
2023-01-13T02:04:51.496Z,98352.66
2023-01-13T02:07:27.073Z,98357.85
2023-01-13T02:10:02.879Z,98355.45
2023-01-13T02:12:35.425Z,98354.95
2023-01-13T02:15:12.887Z,98359.83
2023-01-13T02:18:09.110Z,98350.30
2023-01-13T02:21:24.899Z,98343.81
2023-01-13T02:25:49.844Z,98335.14
2023-01-13T02:29:20.510Z,98335.10
2023-01-13T02:32:25.528Z,98331.45
2023-01-13T02:35:23.781Z,98331.45
2023-01-13T02:38:20.568Z,98329.44
2023-01-13T02:41:38.654Z,98320.66
2023-01-13T02:44:37.508Z,98319.01
2023-01-13T02:47:33.532Z,98312.25
2023-01-13T02:50:30.139Z,98313.90
2023-01-13T02:53:29.006Z,98312.38
2023-01-13T02:56:24.911Z,98316.50
2023-01-13T02:59:17.865Z,98312.73
2023-01-13T03:02:14.260Z,98309.20
2023-01-13T03:05:08.105Z,98308.83
2023-01-13T03:08:23.983Z,98310.66
2023-01-13T03:11:20.366Z,98304.27
2023-01-13T03:14:24.502Z,98299.98
2023-01-13T03:17:27.264Z,98297.85
2023-01-13T03:20:25.599Z,98294.92
2023-01-13T03:23:23.631Z,98289.66
2023-01-13T03:26:24.274Z,98285.29
2023-01-13T03:29:22.004Z,98285.38
2023-01-13T03:32:02.903Z,98286.25
2023-01-13T03:34:58.260Z,98283.59
2023-01-13T03:37:57.744Z,98286.30
2023-01-13T03:40:55.775Z,98281.20
2023-01-13T03:44:12.989Z,98280.21
2023-01-13T03:47:12.271Z,98280.70
2023-01-13T03:50:08.379Z,98278.27
2023-01-13T03:53:09.367Z,98276.86
2023-01-13T03:56:08.606Z,98272.90
2023-01-13T03:59:05.149Z,98275.32
2023-01-13T04:02:05.907Z,98276.45
2023-01-13T04:05:04.038Z,98278.20
2023-01-13T04:07:47.660Z,98279.02
2023-01-13T04:10:49.854Z,98275.11
2023-01-13T04:13:44.801Z,98273.27
2023-01-13T04:16:37.826Z,98271.09
2023-01-13T04:19:32.949Z,98270.10
2023-01-13T04:22:25.165Z,98271.09
2023-01-13T04:25:17.604Z,98274.55
2023-01-13T04:28:04.524Z,98283.64
2023-01-13T04:30:56.776Z,98276.42
2023-01-13T04:33:48.987Z,98277.73
2023-01-13T04:36:25.151Z,98281.69
2023-01-13T04:39:18.778Z,98285.63
2023-01-13T04:41:59.509Z,98284.75
2023-01-13T04:44:51.729Z,98278.58
2023-01-13T04:47:44.093Z,98269.37
2023-01-13T04:50:37.260Z,98267.90
2023-01-13T04:53:29.338Z,98269.06
2023-01-13T04:56:03.797Z,98265.42
2023-01-13T04:58:55.986Z,98269.95
2023-01-13T05:01:48.497Z,98276.10
2023-01-13T05:04:40.844Z,98272.91
2023-01-13T05:07:33.028Z,98273.80
2023-01-13T05:10:25.205Z,98269.96
2023-01-13T05:13:34.991Z,98274.48
2023-01-13T05:16:44.807Z,98269.96
2023-01-13T05:19:40.691Z,98271.92
2023-01-13T05:22:50.740Z,98278.10
2023-01-13T05:25:44.802Z,98277.66
2023-01-13T05:28:37.036Z,98281.77
2023-01-13T05:31:29.199Z,98282.48
2023-01-13T05:34:21.391Z,98284.16
2023-01-13T05:37:13.574Z,98285.48
2023-01-13T05:40:24.455Z,98279.83
2023-01-13T05:43:24.708Z,98283.80
2023-01-13T05:46:17.735Z,98277.30
2023-01-13T05:48:52.923Z,98278.41
2023-01-13T05:51:45.136Z,98278.44
2023-01-13T05:54:37.532Z,98274.05
2023-01-13T05:57:12.395Z,98269.65
2023-01-13T06:00:05.516Z,98267.23
2023-01-13T06:02:57.917Z,98264.64
2023-01-13T06:05:52.602Z,98274.23
2023-01-13T06:08:44.922Z,98270.66
2023-01-13T06:11:37.069Z,98275.85
2023-01-13T06:14:41.137Z,98279.02
2023-01-13T06:17:33.371Z,98283.48
2023-01-13T06:20:26.096Z,98288.90
2023-01-13T06:23:19.121Z,98287.86
2023-01-13T06:26:16.992Z,98289.06
2023-01-13T06:29:14.020Z,98294.37
2023-01-13T06:32:13.001Z,98292.92
2023-01-13T06:35:11.247Z,98293.53
2023-01-13T06:38:06.326Z,98289.92
2023-01-13T06:40:58.682Z,98292.29
2023-01-13T06:43:53.100Z,98289.02
2023-01-13T06:46:45.586Z,98290.73
2023-01-13T06:49:38.774Z,98290.77
2023-01-13T06:52:30.848Z,98292.68
2023-01-13T06:55:23.182Z,98287.60
2023-01-13T06:58:15.330Z,98278.55
2023-01-13T07:01:00.626Z,98282.20
2023-01-13T07:03:52.999Z,98289.54
2023-01-13T07:06:45.285Z,98286.13
2023-01-13T07:09:37.615Z,98285.63
2023-01-13T07:12:29.848Z,98291.20
2023-01-13T07:15:22.047Z,98288.34
2023-01-13T07:18:14.263Z,98289.52
2023-01-13T07:21:09.446Z,98288.93
2023-01-13T07:24:01.681Z,98291.33
2023-01-13T07:26:54.705Z,98293.27
2023-01-13T07:29:46.784Z,98290.13
2023-01-13T07:32:39.173Z,98287.80
2023-01-13T07:35:12.106Z,98291.65
2023-01-13T07:37:49.947Z,98298.30
2023-01-13T07:40:42.568Z,98300.51
2023-01-13T07:43:35.895Z,98300.18
2023-01-13T07:46:28.051Z,98301.04
2023-01-13T07:49:11.556Z,98298.32
2023-01-13T07:52:03.662Z,98298.41
2023-01-13T07:54:56.187Z,98296.46
2023-01-13T07:57:49.178Z,98297.48
2023-01-13T08:00:25.797Z,98295.66
2023-01-13T08:03:18.013Z,98295.20
2023-01-13T08:06:11.313Z,98294.27
2023-01-13T08:09:03.654Z,98291.61
2023-01-13T08:12:16.202Z,98293.14
2023-01-13T08:15:10.709Z,98294.46
2023-01-13T08:17:51.781Z,98297.67
2023-01-13T08:20:44.505Z,98307.14
2023-01-13T08:23:37.370Z,98304.79
2023-01-13T08:26:29.585Z,98305.05
2023-01-13T08:29:21.778Z,98305.91
2023-01-13T08:32:13.894Z,98311.39
2023-01-13T08:35:06.740Z,98305.42
2023-01-13T08:37:41.887Z,98304.06
2023-01-13T08:40:34.869Z,98308.54
2023-01-13T08:43:16.020Z,98313.33
2023-01-13T08:46:08.871Z,98312.52
2023-01-13T08:48:51.781Z,98316.21
2023-01-13T08:51:45.104Z,98319.17
2023-01-13T08:54:38.310Z,98315.58
2023-01-13T08:57:30.843Z,98315.63
2023-01-13T09:00:23.483Z,98312.30
2023-01-13T09:03:15.875Z,98315.96
2023-01-13T09:05:50.697Z,98312.88
2023-01-13T09:08:42.867Z,98308.36
2023-01-13T09:11:56.216Z,98307.64
2023-01-13T09:14:48.621Z,98306.52
2023-01-13T09:17:40.870Z,98309.88
2023-01-13T09:20:33.124Z,98304.65
2023-01-13T09:23:25.249Z,98312.94
2023-01-13T09:26:00.270Z,98306.46
2023-01-13T09:28:43.570Z,98313.80
2023-01-13T09:31:15.882Z,98307.00
2023-01-13T09:34:26.923Z,98304.13
2023-01-13T09:37:19.240Z,98300.59
2023-01-13T09:40:18.047Z,98293.58
2023-01-13T09:43:38.862Z,98289.76
2023-01-13T09:46:47.387Z,98284.23
2023-01-13T09:49:43.738Z,98276.85
2023-01-13T09:52:38.215Z,98282.95
2023-01-13T09:55:36.732Z,98278.09
2023-01-13T09:58:29.837Z,98283.35
2023-01-13T10:01:29.445Z,98272.45
2023-01-13T10:04:21.951Z,98276.00
2023-01-13T10:07:16.960Z,98268.84
2023-01-13T10:10:18.517Z,98262.33
2023-01-13T10:13:20.453Z,98262.07
2023-01-13T10:16:27.532Z,98261.85
2023-01-13T10:19:26.417Z,98255.82
2023-01-13T10:22:29.280Z,98251.17
2023-01-13T10:25:28.813Z,98249.66
2023-01-13T10:28:23.908Z,98242.06
2023-01-13T10:31:17.629Z,98246.04
2023-01-13T10:34:10.419Z,98237.75
2023-01-13T10:37:07.115Z,98238.90
2023-01-13T10:40:02.337Z,98236.98
2023-01-13T10:43:07.059Z,98231.70
2023-01-13T10:48:24.219Z,98231.80
2023-01-13T10:51:25.572Z,98231.23
2023-01-13T10:54:25.129Z,98226.08
2023-01-13T10:57:20.675Z,98221.81
2023-01-13T11:01:26.929Z,98213.80
2023-01-13T11:04:01.704Z,98209.55
2023-01-13T11:06:54.207Z,98213.63
2023-01-13T11:09:46.410Z,98208.28
2023-01-13T11:12:45.484Z,98211.13
2023-01-13T11:16:29.332Z,98202.39
2023-01-13T11:19:25.821Z,98203.80
2023-01-13T11:22:22.768Z,98205.63
2023-01-13T11:25:20.558Z,98210.73
2023-01-13T11:28:29.448Z,98209.92
2023-01-13T11:31:29.732Z,98209.59
2023-01-13T11:34:31.433Z,98205.73
2023-01-13T11:37:19.832Z,98205.64
2023-01-13T11:40:20.341Z,98206.23
2023-01-13T11:43:21.127Z,98209.83
2023-01-13T11:46:13.881Z,98203.20
2023-01-13T11:48:57.377Z,98202.41
2023-01-13T11:51:55.593Z,98198.86
2023-01-13T11:55:11.435Z,98199.08
2023-01-13T11:58:20.254Z,98201.45
2023-01-13T12:01:24.967Z,98198.71
2023-01-13T12:04:28.835Z,98194.52
2023-01-13T12:07:31.651Z,98192.48
2023-01-13T12:10:36.295Z,98182.90
2023-01-13T12:13:40.998Z,98175.70
2023-01-13T12:16:35.580Z,98172.94
2023-01-13T12:19:30.858Z,98170.25
2023-01-13T12:22:27.581Z,98172.11
2023-01-13T12:25:13.964Z,98170.07
2023-01-13T12:28:13.181Z,98175.44
2023-01-13T12:31:07.378Z,98178.36
2023-01-13T12:34:02.195Z,98172.82
2023-01-13T12:37:02.285Z,98181.09
2023-01-13T12:40:20.274Z,98180.92
2023-01-13T12:43:39.086Z,98172.63
2023-01-13T12:46:45.615Z,98177.46
2023-01-13T12:49:37.814Z,98185.86
2023-01-13T12:52:43.693Z,98188.76
2023-01-13T12:55:27.073Z,98187.32
2023-01-13T12:58:29.856Z,98190.38
2023-01-13T13:01:37.091Z,98185.44
2023-01-13T13:04:48.285Z,98184.65
2023-01-13T13:07:46.876Z,98186.92
2023-01-13T13:10:44.139Z,98193.92
2023-01-13T13:13:49.675Z,98196.42
2023-01-13T13:17:00.966Z,98203.88
2023-01-13T13:19:54.076Z,98208.30
2023-01-13T13:22:53.126Z,98211.00
2023-01-13T13:26:05.525Z,98206.41
2023-01-13T13:29:17.406Z,98210.34
2023-01-13T13:32:55.846Z,98212.58
2023-01-13T13:36:05.243Z,98209.08
2023-01-13T13:39:29.141Z,98206.60
2023-01-13T13:42:42.004Z,98200.12
2023-01-13T13:45:52.197Z,98201.73
2023-01-13T13:48:54.348Z,98204.92
2023-01-13T13:51:53.518Z,98211.48
2023-01-13T13:54:36.446Z,98209.61
2023-01-13T13:57:37.428Z,98215.95
2023-01-13T14:00:34.890Z,98215.56
2023-01-13T14:03:31.440Z,98216.28
2023-01-13T14:06:25.395Z,98210.10
2023-01-13T14:09:21.234Z,98206.51
2023-01-13T14:12:20.596Z,98202.48
2023-01-13T14:15:27.754Z,98202.42
2023-01-13T14:18:22.040Z,98205.89
2023-01-13T14:21:20.272Z,98210.91
2023-01-13T14:24:17.588Z,98208.27
2023-01-13T14:27:17.427Z,98210.33
2023-01-13T14:30:17.875Z,98206.45
2023-01-13T14:33:17.384Z,98205.04
2023-01-13T14:36:35.819Z,98206.98
2023-01-13T14:39:37.547Z,98216.81
2023-01-13T14:42:35.154Z,98220.23
2023-01-13T14:45:28.220Z,98220.16
2023-01-13T14:48:21.949Z,98222.63
2023-01-13T14:51:22.816Z,98227.47
2023-01-13T14:54:46.182Z,98230.23
2023-01-13T14:57:32.386Z,98232.54
2023-01-13T15:00:26.714Z,98237.38
2023-01-13T15:03:20.958Z,98234.88
2023-01-13T15:06:24.187Z,98239.13
2023-01-13T15:09:24.777Z,98240.91
2023-01-13T15:12:24.136Z,98238.03
2023-01-13T15:15:26.993Z,98242.11
2023-01-13T15:18:19.359Z,98236.99
2023-01-13T15:21:15.583Z,98236.29
2023-01-13T15:24:08.746Z,98237.31
2023-01-13T15:26:50.629Z,98241.96
2023-01-13T15:29:32.220Z,98242.40
2023-01-13T15:32:24.599Z,98245.19
2023-01-13T15:35:18.471Z,98251.77
2023-01-13T15:38:14.640Z,98247.96
2023-01-13T15:41:07.253Z,98242.84
2023-01-13T15:43:59.717Z,98246.52
2023-01-13T15:46:52.811Z,98247.35
2023-01-13T15:49:46.926Z,98246.25
2023-01-13T15:52:23.770Z,98252.53
2023-01-13T15:55:16.186Z,98252.66
2023-01-13T15:58:08.476Z,98254.88
2023-01-13T16:01:00.755Z,98257.14
2023-01-13T16:03:52.885Z,98261.45
2023-01-13T16:06:29.270Z,98265.69
2023-01-13T16:09:21.426Z,98272.25
2023-01-13T16:12:13.875Z,98274.07
2023-01-13T16:15:07.132Z,98280.02
2023-01-13T16:18:03.646Z,98283.27
2023-01-13T16:20:38.703Z,98284.18
2023-01-13T16:23:30.873Z,98281.77
2023-01-13T16:26:26.408Z,98279.43
2023-01-13T16:29:18.690Z,98281.88
2023-01-13T16:32:10.982Z,98283.33
2023-01-13T16:35:03.304Z,98284.43
2023-01-13T16:37:58.384Z,98285.12
2023-01-13T16:40:35.665Z,98286.87
2023-01-13T16:43:28.128Z,98287.14
2023-01-13T16:46:25.705Z,98290.05
2023-01-13T16:49:18.985Z,98284.81
2023-01-13T16:52:11.666Z,98289.60
2023-01-13T16:55:03.977Z,98293.41
2023-01-13T16:57:54.791Z,98297.39
2023-01-13T17:00:49.149Z,98300.15
2023-01-13T17:03:41.566Z,98299.48
2023-01-13T17:06:38.098Z,98298.67
2023-01-13T17:09:31.689Z,98293.41
2023-01-13T17:12:24.579Z,98287.73
2023-01-13T17:15:19.150Z,98291.05
2023-01-13T17:18:13.294Z,98287.62
2023-01-13T17:21:07.305Z,98285.07
2023-01-13T17:23:59.644Z,98284.86
2023-01-13T17:26:53.771Z,98289.06
2023-01-13T17:29:46.907Z,98288.81
2023-01-13T17:32:39.293Z,98291.72
2023-01-13T17:35:31.978Z,98295.52
2023-01-13T17:38:24.781Z,98296.71
2023-01-13T17:43:03.938Z,98300.26
2023-01-13T17:45:57.483Z,98307.54
2023-01-13T17:48:50.833Z,98309.13
2023-01-13T17:51:43.288Z,98308.48
2023-01-13T17:54:37.683Z,98308.45
2023-01-13T17:57:29.912Z,98303.20
2023-01-13T18:00:23.491Z,98303.90
2023-01-13T18:03:16.382Z,98305.23
2023-01-13T18:06:11.914Z,98313.49
2023-01-13T18:09:04.455Z,98319.30
2023-01-13T18:11:56.616Z,98320.37
2023-01-13T18:14:48.883Z,98328.27
2023-01-13T18:17:41.045Z,98336.91
2023-01-13T18:20:51.139Z,98335.27
2023-01-13T18:24:01.152Z,98338.86
2023-01-13T18:27:11.083Z,98346.08
2023-01-13T18:30:06.533Z,98345.56
2023-01-13T18:32:58.728Z,98348.17
2023-01-13T18:35:50.983Z,98351.23
2023-01-13T18:38:43.191Z,98358.27
2023-01-13T18:41:53.181Z,98363.92
2023-01-13T18:44:45.421Z,98367.17
2023-01-13T18:47:39.206Z,98375.30
2023-01-13T18:50:34.535Z,98376.67
2023-01-13T18:53:26.648Z,98380.49
2023-01-13T18:56:19.900Z,98383.52
2023-01-13T18:59:12.052Z,98385.70
2023-01-13T19:02:15.422Z,98383.73
2023-01-13T19:05:08.969Z,98388.23
2023-01-13T19:08:01.107Z,98389.08
2023-01-13T19:10:54.262Z,98385.67
2023-01-13T19:13:46.440Z,98391.40
2023-01-13T19:16:38.864Z,98398.13
2023-01-13T19:19:32.557Z,98403.64
2023-01-13T19:22:29.658Z,98404.99
2023-01-13T19:25:21.996Z,98403.65
2023-01-13T19:28:15.357Z,98408.70
2023-01-13T19:31:10.083Z,98409.09
2023-01-13T19:33:45.991Z,98407.54
2023-01-13T19:36:38.122Z,98409.77
2023-01-13T19:39:30.663Z,98412.54
2023-01-13T19:42:40.569Z,98417.64
2023-01-13T19:45:35.531Z,98416.67
2023-01-13T19:48:27.796Z,98420.05
2023-01-13T19:51:19.990Z,98424.59
2023-01-13T19:54:12.154Z,98428.92
2023-01-13T19:57:04.836Z,98436.67
2023-01-13T19:59:45.819Z,98441.71
2023-01-13T20:02:38.942Z,98439.98
2023-01-13T20:05:31.341Z,98442.37
2023-01-13T20:08:25.531Z,98442.16
2023-01-13T20:11:31.018Z,98444.23
2023-01-13T20:14:24.086Z,98444.32
2023-01-13T20:17:17.623Z,98440.96
2023-01-13T20:20:11.930Z,98442.05
2023-01-13T20:22:50.363Z,98440.80
2023-01-13T20:25:45.492Z,98440.35
2023-01-13T20:28:39.625Z,98449.70
2023-01-13T20:31:30.378Z,98455.02
2023-01-13T20:34:26.027Z,98453.02
2023-01-13T20:37:18.391Z,98451.34
2023-01-13T20:40:14.603Z,98454.49
2023-01-13T20:43:07.398Z,98460.45
2023-01-13T20:45:59.588Z,98461.09
2023-01-13T20:48:51.947Z,98466.19
2023-01-13T20:51:44.347Z,98461.40
2023-01-13T20:54:36.913Z,98467.80
2023-01-13T20:57:29.044Z,98475.98
2023-01-13T21:00:22.955Z,98481.98
2023-01-13T21:03:15.115Z,98478.30
2023-01-13T21:06:08.164Z,98483.01
2023-01-13T21:09:00.477Z,98488.50
2023-01-13T21:12:14.080Z,98488.39
2023-01-13T21:15:09.250Z,98487.05
2023-01-13T21:18:19.041Z,98492.41
2023-01-13T21:21:11.188Z,98496.69
2023-01-13T21:24:04.489Z,98508.21
2023-01-13T21:26:58.778Z,98502.97
2023-01-13T21:29:50.905Z,98502.64
2023-01-13T21:32:44.023Z,98504.20
2023-01-13T21:35:26.575Z,98510.77
2023-01-13T21:38:20.200Z,98509.20
2023-01-13T21:41:14.356Z,98514.61
2023-01-13T21:44:25.143Z,98516.83
2023-01-13T21:47:37.079Z,98518.78
2023-01-13T21:50:30.563Z,98521.81
2023-01-13T21:53:22.700Z,98526.94
2023-01-13T21:56:14.886Z,98527.60
2023-01-13T21:59:06.994Z,98527.73
2023-01-13T22:02:24.642Z,98530.15
2023-01-13T22:05:19.563Z,98532.86
2023-01-13T22:08:14.986Z,98533.67
2023-01-13T22:11:07.594Z,98530.36
2023-01-13T22:14:10.179Z,98525.27
2023-01-13T22:17:04.952Z,98525.70
2023-01-13T22:19:57.599Z,98525.61
2023-01-13T22:22:49.843Z,98532.52
2023-01-13T22:25:42.052Z,98529.28
2023-01-13T22:28:40.484Z,98532.96
2023-01-13T22:31:32.704Z,98531.83
2023-01-13T22:34:30.870Z,98539.36
2023-01-13T22:37:23.032Z,98538.27
2023-01-13T22:40:15.961Z,98544.99
2023-01-13T22:42:53.538Z,98536.98
2023-01-13T22:45:45.657Z,98542.06
2023-01-13T22:48:29.531Z,98541.63
2023-01-13T22:51:22.781Z,98548.83
2023-01-13T22:54:15.863Z,98548.94
2023-01-13T22:57:08.211Z,98549.42
2023-01-13T23:00:00.322Z,98551.52
2023-01-13T23:02:52.470Z,98553.24
2023-01-13T23:05:45.878Z,98558.02
2023-01-13T23:08:38.506Z,98562.99
2023-01-13T23:11:33.541Z,98557.20
2023-01-13T23:14:26.088Z,98549.08
2023-01-13T23:17:18.502Z,98551.09
2023-01-13T23:20:12.501Z,98555.14
2023-01-13T23:23:04.824Z,98557.86
2023-01-13T23:25:57.939Z,98562.29
2023-01-13T23:28:50.576Z,98567.91
2023-01-13T23:31:25.520Z,98572.34
2023-01-13T23:34:17.660Z,98572.70
2023-01-13T23:37:09.772Z,98581.55
2023-01-13T23:40:03.189Z,98581.65
2023-01-13T23:42:55.289Z,98584.09
2023-01-13T23:45:47.563Z,98581.05
2023-01-13T23:48:39.845Z,98585.67
2023-01-13T23:51:33.213Z,98584.48
2023-01-13T23:54:26.805Z,98585.47
2023-01-13T23:57:19.046Z,98588.44
